Time;durP1;ratioP1;P1;durP2;ratioP2;P2;SDS_P1;SDS_P2;PMS_P1;PMS_P2;Temp;Humidity;BMP_temperature;BMP_pressure;BME280_temperature;BME280_humidity;BME280_pressure;Samples;Min_cycle;Max_cycle;Signal;HPM_P1;HPM_P2
2021/10/01 00:00:06;;;;;;;2.57;1.00;;;12.10;99.90;;;;;;5042846;28;20223;-58
2021/10/01 00:02:33;;;;;;;3.63;1.00;;;12.10;99.90;;;;;;5020913;28;20327;-46
2021/10/01 00:05:00;;;;;;;2.87;1.20;;;12.10;99.90;;;;;;5043072;28;20211;-51
2021/10/01 00:07:27;;;;;;;3.30;1.10;;;12.10;99.90;;;;;;5039278;28;20777;-54
2021/10/01 00:09:54;;;;;;;3.40;1.33;;;12.10;99.90;;;;;;5043824;28;20223;-52
2021/10/01 00:12:21;;;;;;;3.10;1.33;;;12.10;99.90;;;;;;5034000;28;20539;-54
2021/10/01 00:14:48;;;;;;;1.27;0.70;;;12.10;99.90;;;;;;5047096;28;20252;-52
2021/10/01 00:17:16;;;;;;;2.40;1.00;;;12.10;99.90;;;;;;5034741;28;20615;-56
2021/10/01 00:19:43;;;;;;;1.93;1.00;;;12.10;99.90;;;;;;5043442;28;20219;-48
2021/10/01 00:22:10;;;;;;;2.93;1.07;;;12.10;99.90;;;;;;5045243;28;20222;-52
2021/10/01 00:24:36;;;;;;;8.57;1.57;;;12.10;99.90;;;;;;5044929;28;20202;-52
2021/10/01 00:27:08;;;;;;;3.63;1.30;;;12.00;99.90;;;;;;5045504;28;20203;-50
2021/10/01 00:29:35;;;;;;;1.97;0.90;;;12.00;99.90;;;;;;5038606;28;20222;-51
2021/10/01 00:32:02;;;;;;;2.67;0.97;;;12.00;99.90;;;;;;5046241;28;20206;-58
2021/10/01 00:34:30;;;;;;;2.73;0.93;;;12.00;99.90;;;;;;5028821;28;20199;-51
2021/10/01 00:36:57;;;;;;;2.60;0.80;;;11.90;99.90;;;;;;5046673;28;20273;-48
2021/10/01 00:39:24;;;;;;;3.60;0.83;;;11.90;99.90;;;;;;5042606;28;20837;-53
2021/10/01 00:41:51;;;;;;;2.33;0.90;;;11.90;99.90;;;;;;5047508;28;20204;-54
2021/10/01 00:44:17;;;;;;;4.80;1.10;;;11.90;99.90;;;;;;5033765;28;20207;-49
2021/10/01 00:46:44;;;;;;;2.50;0.90;;;12.00;99.90;;;;;;5038035;28;20196;-55
2021/10/01 00:49:11;;;;;;;3.20;1.00;;;12.00;99.90;;;;;;5038285;28;20226;-47
2021/10/01 00:51:39;;;;;;;3.20;0.73;;;12.00;99.90;;;;;;5038651;28;20195;-54
2021/10/01 00:54:09;;;;;;;1.17;0.90;;;12.00;99.90;;;;;;5045620;28;20203;-55
2021/10/01 00:56:36;;;;;;;1.80;0.97;;;12.00;99.90;;;;;;5043991;28;20207;-46
2021/10/01 00:59:03;;;;;;;2.87;1.13;;;12.10;99.90;;;;;;5021672;28;20223;-53
2021/10/01 01:01:29;;;;;;;1.57;1.00;;;12.10;99.90;;;;;;5038377;28;20822;-54
2021/10/01 01:04:00;;;;;;;2.57;1.27;;;12.10;99.90;;;;;;5031303;28;20967;-54
2021/10/01 01:06:38;;;;;;;4.03;0.90;;;12.10;99.90;;;;;;5030363;28;20373;-51
2021/10/01 01:09:17;;;;;;;5.40;1.20;;;12.10;99.90;;;;;;5035522;28;20310;-53
2021/10/01 01:12:00;;;;;;;1.57;0.80;;;12.10;99.90;;;;;;5042110;28;20203;-53
2021/10/01 01:14:34;;;;;;;1.23;0.90;;;12.10;99.90;;;;;;5030127;28;20865;-51
2021/10/01 01:17:05;;;;;;;4.67;1.07;;;12.10;99.90;;;;;;5031837;28;21001;-53
2021/10/01 01:20:06;;;;;;;5.70;1.00;;;12.10;99.90;;;;;;5045729;28;20227;-50
2021/10/01 01:22:58;;;;;;;2.20;0.93;;;12.10;99.90;;;;;;5022921;28;20207;-50
2021/10/01 01:25:43;;;;;;;2.37;1.00;;;12.10;99.90;;;;;;5038566;28;20253;-56
2021/10/01 01:28:14;;;;;;;1.77;0.80;;;12.10;99.90;;;;;;5031001;28;20199;-55
2021/10/01 01:30:45;;;;;;;1.37;0.60;;;12.10;99.90;;;;;;5016061;28;20225;-53
2021/10/01 01:33:17;;;;;;;3.00;0.93;;;12.10;99.90;;;;;;5044524;28;20203;-55
2021/10/01 01:35:47;;;;;;;3.03;0.97;;;12.10;99.90;;;;;;5032432;28;20310;-51
2021/10/01 01:38:18;;;;;;;1.93;0.77;;;12.10;99.90;;;;;;5043385;28;20231;-49
2021/10/01 01:40:49;;;;;;;1.23;1.00;;;12.20;99.90;;;;;;5034104;28;20219;-52
2021/10/01 01:43:16;;;;;;;3.10;0.87;;;12.20;99.90;;;;;;5045514;28;20207;-54
2021/10/01 01:45:45;;;;;;;2.07;0.90;;;12.20;99.90;;;;;;5025032;28;20191;-56
2021/10/01 01:48:14;;;;;;;3.37;1.03;;;12.20;99.90;;;;;;5030941;28;20207;-52
2021/10/01 01:50:43;;;;;;;3.90;0.93;;;12.10;99.90;;;;;;5041082;28;20207;-53
2021/10/01 01:53:12;;;;;;;3.10;1.00;;;12.20;99.90;;;;;;5020395;28;20206;-53
2021/10/01 01:55:39;;;;;;;2.37;0.90;;;12.10;99.90;;;;;;5043687;28;20226;-49
2021/10/01 01:58:07;;;;;;;1.80;1.03;;;12.20;99.90;;;;;;5025689;28;20191;-54
2021/10/01 02:00:54;;;;;;;2.37;0.70;;;12.20;99.90;;;;;;5026212;28;20734;-48
2021/10/01 02:03:23;;;;;;;2.20;0.90;;;12.20;99.90;;;;;;5034207;28;20290;-53
2021/10/01 02:06:02;;;;;;;2.17;0.93;;;12.20;99.90;;;;;;5040592;28;20226;-53
2021/10/01 02:08:30;;;;;;;1.90;1.03;;;12.10;99.90;;;;;;5017991;28;20687;-53
2021/10/01 02:10:57;;;;;;;2.60;1.07;;;12.10;99.90;;;;;;5029491;28;20922;-54
2021/10/01 02:13:25;;;;;;;3.83;1.10;;;12.20;99.90;;;;;;5044881;28;20214;-54
2021/10/01 02:16:07;;;;;;;3.00;1.20;;;12.20;99.90;;;;;;5030014;28;20215;-51
2021/10/01 02:18:37;;;;;;;3.10;0.73;;;12.20;99.90;;;;;;5043496;28;20222;-57
2021/10/01 02:21:05;;;;;;;2.93;0.70;;;12.20;99.90;;;;;;5039222;28;20739;-49
2021/10/01 02:23:34;;;;;;;2.83;0.70;;;12.20;99.90;;;;;;5025224;28;20216;-57
2021/10/01 02:28:55;;;;;;;1.60;0.60;;;12.20;99.90;;;;;;5033609;28;20779;-54
2021/10/01 02:31:26;;;;;;;2.13;0.97;;;12.20;99.90;;;;;;5039533;28;20199;-52
2021/10/01 02:33:59;;;;;;;4.60;1.00;;;12.20;99.90;;;;;;5015558;28;20214;-50
2021/10/01 02:36:26;;;;;;;1.80;0.60;;;12.20;99.90;;;;;;5039663;28;20708;-50
2021/10/01 02:38:53;;;;;;;3.23;1.00;;;12.20;99.90;;;;;;5025659;28;20838;-51
2021/10/01 02:41:21;;;;;;;3.03;1.30;;;12.20;99.90;;;;;;5032518;28;20206;-50
2021/10/01 02:43:47;;;;;;;2.90;0.70;;;12.20;99.90;;;;;;5040842;28;20246;-53
2021/10/01 02:46:14;;;;;;;3.77;1.20;;;12.20;99.90;;;;;;5044182;28;20199;-48
2021/10/01 02:48:43;;;;;;;2.60;0.93;;;12.20;99.90;;;;;;5023711;28;20231;-55
2021/10/01 02:51:15;;;;;;;3.00;1.00;;;12.10;99.90;;;;;;5034984;28;20203;-55
2021/10/01 02:53:52;;;;;;;2.60;0.97;;;12.20;99.90;;;;;;5039624;28;20285;-55
2021/10/01 02:56:24;;;;;;;4.73;1.13;;;12.20;99.90;;;;;;5032523;28;20223;-54
2021/10/01 02:58:56;;;;;;;2.33;1.20;;;12.20;99.90;;;;;;5039479;28;20210;-52
2021/10/01 03:01:24;;;;;;;3.27;0.80;;;12.20;99.90;;;;;;5042369;28;20751;-53
2021/10/01 03:03:53;;;;;;;3.40;0.93;;;12.20;99.90;;;;;;5023259;28;20401;-53
2021/10/01 03:06:22;;;;;;;2.63;0.90;;;12.10;99.90;;;;;;5032977;28;20245;-53
2021/10/01 03:08:50;;;;;;;2.23;0.80;;;12.10;99.90;;;;;;5039422;28;20294;-49
2021/10/01 03:11:19;;;;;;;1.07;0.70;;;12.20;99.90;;;;;;5011574;28;20208;-52
2021/10/01 03:13:47;;;;;;;2.80;0.80;;;12.20;99.90;;;;;;5024426;28;20675;-52
2021/10/01 03:16:17;;;;;;;5.60;1.20;;;12.20;99.90;;;;;;5040608;28;20226;-53
2021/10/01 03:18:46;;;;;;;3.03;1.17;;;12.10;99.90;;;;;;5033904;28;20563;-54
2021/10/01 03:21:13;;;;;;;3.47;0.80;;;12.10;99.90;;;;;;5032370;28;20207;-51
2021/10/01 03:23:43;;;;;;;3.13;1.00;;;12.10;99.90;;;;;;5039976;28;20203;-55
2021/10/01 03:26:10;;;;;;;2.60;0.67;;;12.10;99.90;;;;;;5036105;28;20381;-56
2021/10/01 03:28:37;;;;;;;3.20;1.00;;;12.10;99.90;;;;;;5016481;28;20219;-51
2021/10/01 03:31:05;;;;;;;5.07;1.40;;;12.00;99.90;;;;;;5037641;28;20198;-48
2021/10/01 03:33:35;;;;;;;2.40;1.07;;;12.00;99.90;;;;;;5040458;28;20210;-56
2021/10/01 03:36:02;;;;;;;1.37;0.80;;;12.00;99.90;;;;;;5030968;28;20222;-52
2021/10/01 03:38:29;;;;;;;2.23;0.80;;;11.90;99.90;;;;;;5032830;28;20265;-48
2021/10/01 03:41:02;;;;;;;2.27;0.90;;;11.90;99.90;;;;;;5038832;28;20206;-50
2021/10/01 03:43:29;;;;;;;1.83;0.90;;;11.90;99.90;;;;;;5016688;28;20565;-50
2021/10/01 03:45:57;;;;;;;3.73;0.80;;;11.80;99.90;;;;;;5033137;28;20287;-47
2021/10/01 03:48:25;;;;;;;2.87;0.97;;;11.80;99.90;;;;;;5041211;28;20636;-48
2021/10/01 03:51:03;;;;;;;2.57;0.93;;;11.80;99.90;;;;;;5028430;28;20222;-47
2021/10/01 03:53:32;;;;;;;1.43;0.80;;;11.80;99.90;;;;;;5028694;28;20195;-56
2021/10/01 03:55:59;;;;;;;3.27;1.00;;;11.80;99.90;;;;;;5021905;28;20222;-50
2021/10/01 03:58:27;;;;;;;2.53;0.90;;;11.80;99.90;;;;;;5013157;28;20223;-52
2021/10/01 04:00:57;;;;;;;4.83;0.90;;;11.70;99.90;;;;;;5027546;28;20207;-52
2021/10/01 04:03:24;;;;;;;2.43;0.97;;;11.70;99.90;;;;;;5041279;28;20207;-49
2021/10/01 04:05:53;;;;;;;2.00;0.97;;;11.70;99.90;;;;;;5037179;28;20883;-46
2021/10/01 04:08:21;;;;;;;1.70;0.80;;;11.60;99.90;;;;;;5020275;28;20227;-50
2021/10/01 04:10:48;;;;;;;4.00;1.00;;;11.60;99.90;;;;;;5031693;28;20258;-54
2021/10/01 04:13:15;;;;;;;4.43;1.47;;;11.60;99.90;;;;;;5024326;28;20281;-55
2021/10/01 04:15:48;;;;;;;2.27;0.80;;;11.50;99.90;;;;;;5028555;28;20217;-52
2021/10/01 04:18:15;;;;;;;4.53;1.00;;;11.50;99.90;;;;;;5034942;28;20216;-51
2021/10/01 04:20:44;;;;;;;2.13;1.07;;;11.40;99.90;;;;;;5040675;28;20230;-52
2021/10/01 04:23:11;;;;;;;3.33;1.13;;;11.40;99.90;;;;;;5021522;28;20200;-52
2021/10/01 04:25:57;;;;;;;2.40;1.40;;;11.40;99.90;;;;;;5033933;28;20191;-51
2021/10/01 04:28:24;;;;;;;2.07;0.70;;;11.30;99.90;;;;;;5031410;28;20736;-55
2021/10/01 04:30:56;;;;;;;3.33;0.90;;;11.30;99.90;;;;;;5008364;28;20348;-49
2021/10/01 04:33:25;;;;;;;3.30;0.97;;;11.30;99.90;;;;;;5033223;28;20199;-55
2021/10/01 04:35:55;;;;;;;1.80;0.97;;;11.30;99.90;;;;;;5037307;28;20195;-55
2021/10/01 04:38:22;;;;;;;2.80;0.80;;;11.30;99.90;;;;;;5033492;28;20226;-55
2021/10/01 04:40:50;;;;;;;1.67;0.90;;;11.20;99.90;;;;;;5029108;28;20223;-52
2021/10/01 04:43:18;;;;;;;5.77;1.07;;;11.20;99.90;;;;;;5041816;28;20253;-53
2021/10/01 04:46:11;;;;;;;4.43;0.90;;;11.20;99.90;;;;;;5038618;28;20203;-56
2021/10/01 04:48:40;;;;;;;1.57;0.80;;;11.20;99.90;;;;;;5037549;28;20227;-51
2021/10/01 04:51:09;;;;;;;2.67;1.23;;;11.20;99.90;;;;;;5039753;28;20758;-51
2021/10/01 04:53:36;;;;;;;2.20;0.90;;;11.20;99.90;;;;;;5036557;28;20207;-53
2021/10/01 04:56:03;;;;;;;2.03;0.80;;;11.20;99.90;;;;;;5021372;28;20223;-51
2021/10/01 04:58:30;;;;;;;3.13;0.80;;;11.20;99.90;;;;;;5036431;28;20592;-52
2021/10/01 05:01:17;;;;;;;0.93;0.70;;;11.20;99.90;;;;;;5046319;28;20342;-50
2021/10/01 05:04:15;;;;;;;2.20;0.80;;;11.20;99.90;;;;;;5045978;28;20207;-53
2021/10/01 05:07:00;;;;;;;2.97;1.03;;;11.30;99.90;;;;;;5043088;28;20210;-49
2021/10/01 05:09:47;;;;;;;1.10;0.80;;;11.30;99.90;;;;;;5034595;28;20227;-57
2021/10/01 05:12:32;;;;;;;2.43;0.90;;;11.30;99.90;;;;;;5045945;28;20210;-48
2021/10/01 05:15:18;;;;;;;4.27;0.97;;;11.30;99.90;;;;;;5019008;28;20318;-50
2021/10/01 05:18:05;;;;;;;3.40;0.90;;;11.30;99.90;;;;;;5044886;28;20368;-50
2021/10/01 05:20:50;;;;;;;1.10;0.90;;;11.30;99.90;;;;;;5039882;28;20416;-49
2021/10/01 05:23:28;;;;;;;2.63;1.00;;;11.40;99.90;;;;;;5031523;28;20198;-49
2021/10/01 05:25:54;;;;;;;3.57;0.97;;;11.40;99.90;;;;;;5017689;28;20204;-55
2021/10/01 05:28:21;;;;;;;1.87;0.70;;;11.40;99.90;;;;;;5032636;28;20345;-49
2021/10/01 05:30:48;;;;;;;2.50;0.83;;;11.40;99.90;;;;;;5026203;28;20648;-56
2021/10/01 05:33:16;;;;;;;2.80;0.80;;;11.40;99.90;;;;;;5034993;28;20203;-56
2021/10/01 05:35:44;;;;;;;5.03;1.17;;;11.50;99.90;;;;;;5037266;28;20208;-50
2021/10/01 05:38:12;;;;;;;2.30;0.93;;;11.50;99.90;;;;;;5026494;28;20321;-48
2021/10/01 05:40:39;;;;;;;1.70;0.80;;;11.50;99.90;;;;;;5026972;28;20345;-49
2021/10/01 05:43:07;;;;;;;4.30;1.00;;;11.50;99.90;;;;;;5010372;28;20834;-56
2021/10/01 05:45:34;;;;;;;3.80;0.93;;;11.50;99.90;;;;;;5008998;28;20774;-51
2021/10/01 05:48:21;;;;;;;1.60;0.90;;;11.50;99.90;;;;;;5038913;28;20268;-58
2021/10/01 05:51:08;;;;;;;2.03;1.10;;;11.50;99.90;;;;;;5036453;28;20214;-51
2021/10/01 05:54:11;;;;;;;1.90;0.80;;;11.50;99.90;;;;;;5041861;28;20210;-54
2021/10/01 05:56:57;;;;;;;4.57;1.00;;;11.50;99.90;;;;;;5039057;28;20361;-53
2021/10/01 05:59:38;;;;;;;2.83;1.10;;;11.50;99.90;;;;;;5013713;28;20329;-53
2021/10/01 06:02:05;;;;;;;1.37;0.80;;;11.50;99.90;;;;;;5033488;28;20874;-51
2021/10/01 06:04:33;;;;;;;1.73;0.90;;;11.50;99.90;;;;;;5032040;28;20777;-52
2021/10/01 06:07:00;;;;;;;2.83;1.00;;;11.50;99.90;;;;;;5039612;28;20560;-50
2021/10/01 06:09:26;;;;;;;3.77;1.00;;;11.50;99.90;;;;;;5040938;28;20219;-55
2021/10/01 06:11:53;;;;;;;2.83;1.47;;;11.50;99.90;;;;;;5043721;28;20209;-52
2021/10/01 06:14:22;;;;;;;1.23;1.07;;;11.50;99.90;;;;;;5034067;28;20602;-54
2021/10/01 06:16:50;;;;;;;5.83;1.13;;;11.50;99.90;;;;;;5030983;28;20915;-51
2021/10/01 06:19:17;;;;;;;2.97;0.90;;;11.50;99.90;;;;;;5041965;28;20215;-53
2021/10/01 06:21:45;;;;;;;3.77;1.20;;;11.50;99.90;;;;;;5036876;28;20195;-52
2021/10/01 06:24:12;;;;;;;1.07;0.80;;;11.50;99.90;;;;;;5044223;28;20509;-50
2021/10/01 06:26:39;;;;;;;2.53;1.27;;;11.50;99.90;;;;;;5040549;28;20890;-52
2021/10/01 06:29:06;;;;;;;2.80;0.93;;;11.50;99.90;;;;;;5037299;28;20223;-52
2021/10/01 06:31:33;;;;;;;5.63;1.17;;;11.60;99.90;;;;;;5036486;28;20898;-48
2021/10/01 06:33:59;;;;;;;5.70;1.00;;;11.60;99.90;;;;;;5021560;28;20672;-58
2021/10/01 06:36:26;;;;;;;0.93;0.77;;;11.60;99.90;;;;;;5026218;28;20210;-48
2021/10/01 06:38:54;;;;;;;2.77;1.37;;;11.60;99.90;;;;;;5034194;28;20223;-52
2021/10/01 06:41:21;;;;;;;2.77;0.90;;;11.60;99.90;;;;;;5042365;28;20214;-54
2021/10/01 06:43:49;;;;;;;2.83;1.20;;;11.60;99.90;;;;;;5027058;28;20203;-53
2021/10/01 06:46:23;;;;;;;3.50;1.07;;;11.70;99.90;;;;;;5042390;28;20278;-49
2021/10/01 06:48:57;;;;;;;4.93;1.03;;;11.70;99.90;;;;;;5026776;28;20222;-51
2021/10/01 06:51:52;;;;;;;5.20;1.13;;;11.70;99.90;;;;;;5030152;28;20195;-46
2021/10/01 08:19:12;;;;;;;2.57;0.90;;;12.70;99.90;;;;;;5039977;28;20302;-52
2021/10/01 08:21:39;;;;;;;2.73;0.83;;;12.70;99.90;;;;;;5012020;28;20282;-51
2021/10/01 08:24:06;;;;;;;2.70;1.10;;;12.70;99.90;;;;;;5039002;28;20559;-56
2021/10/01 08:26:33;;;;;;;4.23;0.90;;;12.70;99.90;;;;;;5037543;28;20210;-57
2021/10/01 08:28:59;;;;;;;5.93;1.10;;;12.80;99.90;;;;;;5035652;28;20227;-55
2021/10/01 08:31:29;;;;;;;1.43;0.93;;;12.80;99.90;;;;;;5032662;28;20340;-51
2021/10/01 08:33:56;;;;;;;3.23;0.80;;;12.90;99.90;;;;;;5044532;28;20215;-54
2021/10/01 08:36:23;;;;;;;1.70;0.60;;;13.00;99.90;;;;;;5032073;28;20209;-53
2021/10/01 08:39:01;;;;;;;2.43;1.03;;;13.00;99.90;;;;;;5032257;28;20702;-56
2021/10/01 08:41:28;;;;;;;4.30;0.70;;;13.10;99.90;;;;;;5040166;28;20234;-48
2021/10/01 08:43:55;;;;;;;1.60;0.80;;;13.20;99.90;;;;;;5038463;28;20211;-53
2021/10/01 08:46:23;;;;;;;1.53;0.90;;;13.30;99.90;;;;;;5043391;28;20199;-52
2021/10/01 08:48:54;;;;;;;3.87;1.20;;;13.30;99.90;;;;;;5033969;28;20912;-54
2021/10/01 08:51:21;;;;;;;1.60;0.80;;;13.40;99.90;;;;;;5033708;28;20211;-49
2021/10/01 08:53:52;;;;;;;2.93;0.93;;;13.50;99.90;;;;;;5040536;28;20868;-52
2021/10/01 08:56:19;;;;;;;2.90;0.80;;;13.60;99.90;;;;;;5045413;28;20234;-51
2021/10/01 08:58:46;;;;;;;4.07;1.17;;;13.60;99.90;;;;;;5032293;28;20207;-51
2021/10/01 09:01:13;;;;;;;2.37;0.90;;;13.70;99.90;;;;;;5045550;28;20199;-51
2021/10/01 09:03:40;;;;;;;4.03;0.77;;;13.80;99.90;;;;;;5033015;28;20672;-54
2021/10/01 09:06:09;;;;;;;3.33;0.90;;;13.90;99.90;;;;;;5031195;28;20205;-50
2021/10/01 09:08:49;;;;;;;3.37;0.70;;;14.00;99.90;;;;;;5043304;28;20555;-54
2021/10/01 09:11:16;;;;;;;1.67;0.80;;;14.10;99.90;;;;;;5042431;28;20203;-52
2021/10/01 09:13:45;;;;;;;0.93;0.80;;;14.20;99.90;;;;;;5027822;28;21021;-53
2021/10/01 09:16:14;;;;;;;0.97;0.60;;;14.20;99.90;;;;;;5041205;28;20203;-48
2021/10/01 09:18:42;;;;;;;2.73;0.80;;;14.30;99.90;;;;;;5032678;28;20602;-54
2021/10/01 09:21:12;;;;;;;3.57;0.70;;;14.30;99.90;;;;;;5044780;28;20203;-54
2021/10/01 09:23:44;;;;;;;2.33;0.60;;;14.40;99.90;;;;;;5032172;28;20689;-51
2021/10/01 09:26:14;;;;;;;2.47;1.30;;;14.40;99.90;;;;;;5037395;28;20226;-54
2021/10/01 09:28:46;;;;;;;1.93;1.00;;;14.50;99.90;;;;;;5037363;28;20227;-49
2021/10/01 09:31:33;;;;;;;3.00;1.07;;;14.50;99.90;;;;;;5039235;28;20207;-50
2021/10/01 09:34:00;;;;;;;1.03;0.77;;;14.50;99.90;;;;;;5032334;28;21667;-52
2021/10/01 09:36:28;;;;;;;3.87;1.03;;;14.60;99.90;;;;;;5041923;28;20203;-51
2021/10/01 09:38:56;;;;;;;2.03;1.00;;;14.60;99.90;;;;;;5036245;28;20215;-52
2021/10/01 09:41:26;;;;;;;2.17;1.00;;;14.70;99.90;;;;;;5040964;28;20200;-56
2021/10/01 09:44:01;;;;;;;2.23;1.13;;;14.70;99.90;;;;;;5035749;28;20200;-49
2021/10/01 09:46:35;;;;;;;2.77;0.80;;;14.80;99.90;;;;;;5038269;28;20203;-56
2021/10/01 09:49:03;;;;;;;1.73;0.80;;;14.90;99.90;;;;;;5040772;28;20571;-57
2021/10/01 09:51:31;;;;;;;4.17;1.40;;;14.90;99.90;;;;;;5030127;28;20896;-50
2021/10/01 09:53:58;;;;;;;2.47;0.60;;;15.00;99.90;;;;;;5037389;28;20629;-57
2021/10/01 09:56:27;;;;;;;1.70;0.83;;;15.00;99.90;;;;;;5038929;28;20210;-51
2021/10/01 09:59:09;;;;;;;2.10;0.83;;;15.10;99.90;;;;;;5033733;28;20225;-55
2021/10/01 10:01:37;;;;;;;2.33;0.93;;;15.10;99.90;;;;;;5037964;28;20476;-53
2021/10/01 10:04:14;;;;;;;3.40;1.33;;;15.20;99.90;;;;;;5039029;28;20210;-53
2021/10/01 10:06:45;;;;;;;4.40;0.90;;;15.30;99.90;;;;;;5021130;28;20223;-52
2021/10/01 10:09:11;;;;;;;4.53;0.90;;;15.40;99.90;;;;;;5044538;28;20706;-55
2021/10/01 10:11:40;;;;;;;3.70;1.20;;;15.50;99.90;;;;;;5040490;28;20206;-54
2021/10/01 10:14:09;;;;;;;2.83;1.10;;;15.60;99.90;;;;;;5032138;28;20371;-52
2021/10/01 10:16:36;;;;;;;3.30;0.97;;;15.70;99.90;;;;;;5036255;28;21063;-54
2021/10/01 10:19:08;;;;;;;1.93;1.17;;;15.80;99.90;;;;;;5039361;28;20223;-51
2021/10/01 10:21:36;;;;;;;3.40;1.20;;;15.80;99.90;;;;;;5024616;28;20629;-52
2021/10/01 10:24:06;;;;;;;1.03;0.90;;;15.90;99.90;;;;;;5034110;28;20211;-53
2021/10/01 10:26:33;;;;;;;2.50;0.90;;;15.90;99.90;;;;;;5030503;28;20393;-52
2021/10/01 10:29:04;;;;;;;3.03;1.47;;;15.90;99.90;;;;;;5037903;28;20215;-55
2021/10/01 10:31:33;;;;;;;4.53;0.73;;;16.00;99.90;;;;;;5035407;28;20906;-52
2021/10/01 10:34:00;;;;;;;1.17;0.60;;;16.00;99.90;;;;;;5038697;28;20207;-53
2021/10/01 10:36:29;;;;;;;2.37;0.80;;;16.10;99.90;;;;;;5025915;28;20214;-50
2021/10/01 10:38:56;;;;;;;2.70;0.77;;;16.10;99.90;;;;;;5032659;28;20247;-52
2021/10/01 10:41:26;;;;;;;6.07;1.53;;;16.10;99.90;;;;;;5039898;28;20199;-56
2021/10/01 10:43:53;;;;;;;3.43;0.90;;;16.20;99.90;;;;;;5040764;28;20211;-54
2021/10/01 10:46:42;;;;;;;3.03;0.90;;;16.20;99.90;;;;;;5036766;28;20195;-51
2021/10/01 10:49:26;;;;;;;2.90;0.90;;;16.30;99.90;;;;;;5031175;28;20227;-52
2021/10/01 10:52:05;;;;;;;1.43;0.60;;;16.30;99.90;;;;;;5043996;28;20187;-57
2021/10/01 10:54:33;;;;;;;1.63;0.70;;;16.20;99.90;;;;;;5021963;28;20491;-56
2021/10/01 10:57:32;;;;;;;2.53;0.70;;;16.20;99.90;;;;;;5039442;28;20223;-55
2021/10/01 11:00:02;;;;;;;3.77;0.93;;;16.30;99.90;;;;;;5037442;28;20227;-57
2021/10/01 11:02:33;;;;;;;2.80;0.83;;;16.30;99.90;;;;;;5032031;28;20316;-57
2021/10/01 11:05:20;;;;;;;2.60;0.70;;;16.40;99.90;;;;;;5032061;28;20696;-53
2021/10/01 11:07:49;;;;;;;2.33;0.97;;;16.50;99.90;;;;;;5042093;28;20707;-57
2021/10/01 11:10:36;;;;;;;2.30;0.77;;;16.50;99.90;;;;;;5020600;28;20294;-48
2021/10/01 11:13:26;;;;;;;1.70;0.90;;;16.60;99.90;;;;;;5043792;28;20203;-54
2021/10/01 11:16:21;;;;;;;1.07;0.80;;;16.80;99.90;;;;;;5037931;28;20203;-54
2021/10/01 11:19:04;;;;;;;1.90;0.60;;;16.90;99.90;;;;;;5042423;28;20228;-55
2021/10/01 11:21:33;;;;;;;1.40;0.93;;;17.10;99.90;;;;;;5030973;28;20892;-56
2021/10/01 11:24:04;;;;;;;2.87;0.93;;;17.10;99.90;;;;;;5035429;28;20207;-57
2021/10/01 11:26:32;;;;;;;2.10;0.70;;;17.10;99.90;;;;;;5030614;28;20199;-49
2021/10/01 11:29:02;;;;;;;1.10;0.80;;;17.10;99.90;;;;;;5043809;28;20234;-57
2021/10/01 11:31:39;;;;;;;3.50;1.00;;;17.10;99.90;;;;;;5031336;28;20196;-56
2021/10/01 11:34:07;;;;;;;3.00;1.13;;;17.00;99.90;;;;;;5039796;28;20210;-53
2021/10/01 11:36:36;;;;;;;4.97;1.07;;;17.00;99.90;;;;;;5028049;28;20203;-54
2021/10/01 11:39:05;;;;;;;2.67;0.90;;;17.10;99.90;;;;;;5030988;28;20226;-51
2021/10/01 11:41:33;;;;;;;3.63;0.90;;;17.10;99.90;;;;;;5024591;28;20665;-56
2021/10/01 11:44:02;;;;;;;1.40;1.10;;;17.10;99.90;;;;;;5039554;28;20195;-55
2021/10/01 11:46:35;;;;;;;3.43;0.73;;;17.10;99.90;;;;;;5027376;28;20195;-56
2021/10/01 11:49:06;;;;;;;6.33;1.00;;;17.20;99.90;;;;;;5040328;28;20219;-49
2021/10/01 11:51:33;;;;;;;4.87;0.97;;;17.30;99.90;;;;;;5030132;28;20195;-55
2021/10/01 11:54:14;;;;;;;0.77;0.60;;;17.30;99.90;;;;;;5041148;28;20568;-54
2021/10/01 11:56:42;;;;;;;4.20;0.97;;;17.50;99.90;;;;;;5023645;28;20851;-51
2021/10/01 11:59:10;;;;;;;2.00;0.83;;;17.50;99.90;;;;;;5037450;28;20222;-49
2021/10/01 12:01:37;;;;;;;1.37;0.70;;;17.60;99.90;;;;;;5031273;28;20216;-53
2021/10/01 12:04:04;;;;;;;2.53;1.00;;;17.70;99.90;;;;;;5036607;28;20210;-52
2021/10/01 12:06:35;;;;;;;2.37;1.10;;;17.70;99.90;;;;;;5021174;28;20322;-50
2021/10/01 12:09:05;;;;;;;2.47;0.87;;;17.80;99.90;;;;;;5037298;28;20353;-54
2021/10/01 12:11:34;;;;;;;7.90;1.20;;;17.90;99.90;;;;;;5028880;28;20257;-50
2021/10/01 12:14:13;;;;;;;2.50;0.90;;;18.00;99.90;;;;;;5029411;28;20207;-54
2021/10/01 12:16:40;;;;;;;5.20;0.97;;;18.10;99.90;;;;;;5033518;28;20597;-47
2021/10/01 12:19:08;;;;;;;2.23;1.00;;;18.00;99.90;;;;;;5028094;28;20680;-57
2021/10/01 12:21:36;;;;;;;2.57;0.83;;;18.00;99.90;;;;;;5035066;28;20202;-49
2021/10/01 12:24:09;;;;;;;1.80;0.90;;;17.80;99.90;;;;;;5037015;28;20231;-56
2021/10/01 12:26:37;;;;;;;3.33;0.90;;;17.70;99.90;;;;;;5033482;28;20207;-52
2021/10/01 12:29:15;;;;;;;3.20;1.07;;;17.70;99.90;;;;;;5018998;28;20644;-56
2021/10/01 12:31:45;;;;;;;3.77;1.17;;;17.80;99.90;;;;;;5033997;28;20668;-56
2021/10/01 12:34:17;;;;;;;1.83;0.57;;;17.90;99.90;;;;;;5035793;28;20669;-48
2021/10/01 12:36:45;;;;;;;2.47;0.63;;;17.90;99.90;;;;;;5032873;28;20222;-56
2021/10/01 12:39:12;;;;;;;1.23;1.00;;;18.00;99.90;;;;;;5035960;28;20256;-53
2021/10/01 12:41:39;;;;;;;3.47;1.07;;;18.00;99.90;;;;;;5031132;28;20568;-49
2021/10/01 12:44:10;;;;;;;1.33;1.07;;;18.00;99.90;;;;;;5028142;28;20222;-51
2021/10/01 12:46:44;;;;;;;2.50;0.77;;;18.00;99.90;;;;;;5039858;28;20218;-55
2021/10/01 12:49:21;;;;;;;3.30;1.30;;;18.00;99.90;;;;;;5034120;28;20219;-54
2021/10/01 12:52:01;;;;;;;2.10;1.07;;;18.20;99.90;;;;;;5032520;28;20207;-52
2021/10/01 12:54:29;;;;;;;2.23;0.70;;;18.20;99.90;;;;;;5016637;28;20310;-55
2021/10/01 12:57:13;;;;;;;2.80;1.00;;;18.20;99.90;;;;;;5029081;28;20204;-53
2021/10/01 12:59:44;;;;;;;2.10;0.70;;;18.10;99.90;;;;;;5022769;28;20235;-53
2021/10/01 13:02:13;;;;;;;3.87;1.17;;;18.10;99.90;;;;;;5035133;28;20763;-58
2021/10/01 13:04:49;;;;;;;2.13;0.90;;;18.00;99.90;;;;;;5037202;28;20672;-48
2021/10/01 13:07:27;;;;;;;2.07;1.53;;;18.10;99.90;;;;;;5028019;28;20210;-56
2021/10/01 13:09:55;;;;;;;2.93;0.93;;;18.10;99.90;;;;;;5036214;28;20223;-52
2021/10/01 13:12:37;;;;;;;5.03;0.77;;;18.30;99.90;;;;;;5026835;28;20203;-52
2021/10/01 13:15:12;;;;;;;3.70;1.20;;;18.50;99.90;;;;;;5024715;28;20215;-59
2021/10/01 13:17:40;;;;;;;1.67;1.10;;;18.50;99.90;;;;;;5041962;28;20207;-51
2021/10/01 13:20:08;;;;;;;3.53;1.00;;;18.70;99.90;;;;;;5042916;28;20592;-51
2021/10/01 13:23:01;;;;;;;4.57;0.87;;;18.80;99.90;;;;;;5038807;28;20425;-53
2021/10/01 13:25:30;;;;;;;4.53;0.80;;;18.80;99.90;;;;;;5040181;28;20977;-58
2021/10/01 13:27:58;;;;;;;2.37;0.67;;;18.60;99.90;;;;;;5035252;28;20203;-52
2021/10/01 13:30:26;;;;;;;4.43;1.00;;;18.50;99.90;;;;;;5031407;28;20203;-54
2021/10/01 13:32:54;;;;;;;3.67;1.07;;;18.40;99.90;;;;;;5042209;28;20222;-58
2021/10/01 13:35:21;;;;;;;2.07;0.97;;;18.40;99.90;;;;;;5037068;28;20200;-55
2021/10/01 13:37:48;;;;;;;1.87;0.80;;;18.40;99.90;;;;;;5041795;28;20677;-54
2021/10/01 13:40:17;;;;;;;1.60;1.00;;;18.60;99.90;;;;;;5035939;28;20223;-53
2021/10/01 13:42:44;;;;;;;3.23;0.80;;;18.60;99.80;;;;;;5035570;28;20549;-48
2021/10/01 13:45:11;;;;;;;2.50;1.07;;;18.40;99.60;;;;;;5033569;28;20211;-55
2021/10/01 13:47:39;;;;;;;2.63;0.87;;;18.10;99.70;;;;;;5037592;28;20200;-53
2021/10/01 13:50:08;;;;;;;3.13;0.90;;;18.00;99.80;;;;;;5037123;28;20231;-55
2021/10/01 13:52:35;;;;;;;2.60;0.70;;;17.90;99.90;;;;;;5041917;28;20375;-49
2021/10/01 13:55:02;;;;;;;2.77;0.87;;;17.80;99.90;;;;;;5035339;28;20204;-52
2021/10/01 13:57:29;;;;;;;3.70;1.30;;;17.70;99.90;;;;;;5033595;28;20814;-57
2021/10/01 13:59:56;;;;;;;1.90;0.67;;;17.60;99.90;;;;;;5044755;28;20601;-58
2021/10/01 14:02:22;;;;;;;2.83;0.80;;;17.60;99.90;;;;;;5030169;28;20211;-58
2021/10/01 14:04:49;;;;;;;3.10;0.73;;;17.60;99.90;;;;;;5046439;28;20609;-54
2021/10/01 14:07:17;;;;;;;1.60;0.70;;;17.80;99.90;;;;;;5037600;28;20207;-55
2021/10/01 14:09:44;;;;;;;1.60;0.80;;;18.20;99.90;;;;;;5036476;28;20238;-54
2021/10/01 14:12:11;;;;;;;1.47;0.60;;;18.60;99.50;;;;;;5041685;28;20226;-52
2021/10/01 14:14:37;;;;;;;5.37;1.00;;;18.80;99.40;;;;;;5031239;28;20710;-54
2021/10/01 14:17:04;;;;;;;3.13;1.13;;;18.90;99.30;;;;;;5028260;28;20204;-57
2021/10/01 14:19:31;;;;;;;2.17;0.60;;;19.10;98.70;;;;;;5034157;28;20226;-58
2021/10/01 14:21:57;;;;;;;1.67;0.73;;;19.10;98.60;;;;;;5039681;28;20206;-50
2021/10/01 14:24:25;;;;;;;3.60;0.60;;;19.10;98.00;;;;;;5033441;28;20203;-59
2021/10/01 14:26:52;;;;;;;1.57;0.70;;;18.90;98.00;;;;;;5039845;28;20874;-46
2021/10/01 14:29:18;;;;;;;2.90;0.90;;;18.70;98.40;;;;;;5031145;28;20596;-52
2021/10/01 14:31:45;;;;;;;4.10;0.90;;;18.50;98.80;;;;;;5038669;28;20203;-51
2021/10/01 14:34:12;;;;;;;2.07;0.80;;;18.30;98.40;;;;;;5022283;28;20230;-54